Time;durP1;ratioP1;P1;durP2;ratioP2;P2;SDS_P1;SDS_P2;PMS_P1;PMS_P2;Temp;Humidity;BMP_temperature;BMP_pressure;BME280_temperature;BME280_humidity;BME280_pressure;Samples;Min_cycle;Max_cycle;Signal;HPM_P1;HPM_P2
2023/08/23 00:00:39;;;;;;;2.80;2.40;;;;;24.10;100941.00;;;;2097630;28;20211;-57
2023/08/23 00:01:40;;;;;;;3.20;2.90;;;;;23.40;100938.00;;;;2103608;28;20314;-57
2023/08/23 00:02:40;;;;;;;3.20;2.70;;;;;24.10;100941.00;;;;2097951;28;20295;-57
2023/08/23 00:03:40;;;;;;;3.30;2.83;;;;;24.10;100943.00;;;;2097337;28;20246;-57
2023/08/23 00:04:41;;;;;;;3.63;2.40;;;;;24.10;100949.00;;;;2092945;28;20223;-57
2023/08/23 00:05:44;;;;;;;3.90;2.70;;;;;24.10;100943.00;;;;2104246;28;20704;-57
2023/08/23 00:06:45;;;;;;;3.25;2.50;;;;;24.10;100952.00;;;;2101457;28;20281;-57
2023/08/23 00:07:45;;;;;;;4.00;2.40;;;;;24.10;100948.00;;;;2086941;28;20622;-57
2023/08/23 00:08:46;;;;;;;3.90;2.70;;;;;24.10;100944.00;;;;2091052;28;20233;-57
2023/08/23 00:09:46;;;;;;;3.33;3.00;;;;;24.10;100940.00;;;;2098848;28;20237;-57
2023/08/23 00:10:53;;;;;;;4.17;2.30;;;;;24.10;100938.00;;;;2107469;28;20212;-56
2023/08/23 00:11:53;;;;;;;3.40;2.72;;;;;24.10;100941.00;;;;2098235;28;20228;-56
2023/08/23 00:12:56;;;;;;;2.90;2.60;;;;;24.10;100938.00;;;;2094539;28;20216;-57
2023/08/23 00:13:56;;;;;;;2.60;2.40;;;;;24.10;100941.00;;;;2095056;28;20225;-57
2023/08/23 00:14:56;;;;;;;3.37;2.70;;;;;24.10;100939.00;;;;2094693;28;20231;-56
2023/08/23 00:15:57;;;;;;;5.70;2.80;;;;;24.10;100943.00;;;;2101062;28;20231;-57
2023/08/23 00:16:57;;;;;;;3.40;2.50;;;;;24.10;100938.00;;;;2103296;28;20220;-54
2023/08/23 00:17:58;;;;;;;3.40;2.77;;;;;24.10;100932.00;;;;2107049;27;20267;-57
2023/08/23 00:18:58;;;;;;;5.63;3.00;;;;;24.10;100934.00;;;;2091460;28;20296;-56
2023/08/23 00:19:58;;;;;;;3.13;2.27;;;;;24.10;100937.00;;;;2100931;28;20211;-58
2023/08/23 00:20:59;;;;;;;3.20;2.40;;;;;24.10;100937.00;;;;2105413;28;20207;-57
2023/08/23 00:21:59;;;;;;;3.77;2.77;;;;;24.10;100942.00;;;;2104438;28;20196;-57
2023/08/23 00:22:59;;;;;;;4.13;3.10;;;;;24.10;100938.00;;;;2108650;28;20214;-55
2023/08/23 00:24:00;;;;;;;5.40;2.77;;;;;24.10;100934.00;;;;2090030;28;20307;-56
2023/08/23 00:25:00;;;;;;;2.47;2.27;;;;;23.80;100940.00;;;;2099971;28;20253;-56
2023/08/23 00:26:00;;;;;;;5.07;2.60;;;;;24.10;100945.00;;;;2101703;28;20208;-56
2023/08/23 00:27:01;;;;;;;5.93;2.40;;;;;24.10;100937.00;;;;2094359;28;20708;-57
2023/08/23 00:28:01;;;;;;;2.33;2.10;;;;;24.10;100936.00;;;;2095666;28;20919;-56
2023/08/23 00:29:02;;;;;;;3.90;2.40;;;;;24.00;100965.00;;;;2096609;27;20728;-55
2023/08/23 00:30:03;;;;;;;4.30;2.60;;;;;24.00;100916.00;;;;2104388;28;20211;-55
2023/08/23 00:31:03;;;;;;;2.80;2.45;;;;;24.10;100928.00;;;;2098261;28;20203;-57
2023/08/23 00:32:04;;;;;;;4.03;2.73;;;;;24.00;100928.00;;;;2102837;28;20760;-57
2023/08/23 00:33:04;;;;;;;3.90;2.70;;;;;24.10;100924.00;;;;2100391;28;20940;-58
2023/08/23 00:34:04;;;;;;;4.70;2.80;;;;;24.00;100925.00;;;;2092381;28;20231;-57
2023/08/23 00:35:05;;;;;;;3.50;2.20;;;;;24.10;100931.00;;;;2114304;27;20250;-57
2023/08/23 00:36:05;;;;;;;6.20;2.77;;;;;24.10;100925.00;;;;2099311;28;20252;-58
2023/08/23 00:37:06;;;;;;;2.60;2.30;;;;;24.10;100926.00;;;;2102798;28;20215;-57
2023/08/23 00:38:06;;;;;;;3.73;2.37;;;;;24.00;100925.00;;;;2100692;28;20265;-57
2023/08/23 00:39:06;;;;;;;2.93;2.30;;;;;24.00;100923.00;;;;2096401;28;20243;-56
2023/08/23 00:40:08;;;;;;;3.43;2.70;;;;;24.00;100796.00;;;;2109427;28;20214;-55
2023/08/23 00:41:09;;;;;;;4.18;2.53;;;;;24.00;100920.00;;;;2099610;27;20281;-56
2023/08/23 00:42:10;;;;;;;2.93;2.63;;;;;24.00;100919.00;;;;2097968;28;20216;-56
2023/08/23 00:43:11;;;;;;;3.40;2.43;;;;;24.00;100912.00;;;;2099601;28;20931;-56
2023/08/23 00:44:11;;;;;;;3.50;2.53;;;;;24.00;100919.00;;;;2096757;28;20480;-57
2023/08/23 00:45:11;;;;;;;3.07;2.30;;;;;24.00;100914.00;;;;2099289;28;20681;-56
2023/08/23 00:46:12;;;;;;;3.20;2.87;;;;;24.00;100918.00;;;;2097996;28;20223;-57
2023/08/23 00:47:12;;;;;;;2.90;2.27;;;;;24.00;100914.00;;;;2102594;28;20219;-58
2023/08/23 00:48:13;;;;;;;3.27;2.80;;;;;24.00;100915.00;;;;2102730;28;20218;-58
2023/08/23 00:49:13;;;;;;;2.87;2.53;;;;;24.00;100917.00;;;;2099402;28;20210;-57
2023/08/23 00:50:13;;;;;;;4.70;2.27;;;;;24.00;100912.00;;;;2103320;28;20227;-57
2023/08/23 00:51:14;;;;;;;4.30;2.30;;;;;24.00;100919.00;;;;2100670;28;20224;-57
2023/08/23 00:52:14;;;;;;;3.87;2.30;;;;;24.00;100918.00;;;;2101314;28;20235;-57
2023/08/23 00:53:15;;;;;;;3.90;2.50;;;;;24.00;100915.00;;;;2101169;28;20306;-57
2023/08/23 00:54:15;;;;;;;3.23;2.53;;;;;24.00;100923.00;;;;2075136;28;20642;-57
2023/08/23 00:55:16;;;;;;;2.93;2.40;;;;;24.00;100915.00;;;;2084751;28;20226;-55
2023/08/23 00:56:16;;;;;;;2.90;2.50;;;;;24.00;100920.00;;;;2093489;28;20220;-57
2023/08/23 00:57:16;;;;;;;4.90;2.47;;;;;24.00;100922.00;;;;2082206;28;20293;-56
2023/08/23 00:58:17;;;;;;;4.17;2.60;;;;;24.00;100929.00;;;;2078203;28;20367;-57
2023/08/23 00:59:18;;;;;;;5.43;2.65;;;;;24.00;100922.00;;;;2066367;28;20228;-59
2023/08/23 01:00:18;;;;;;;4.67;2.23;;;;;24.00;100922.00;;;;2079793;28;20311;-60
2023/08/23 01:01:19;;;;;;;4.40;2.00;;;;;24.10;100919.00;;;;2102619;28;20218;-59
2023/08/23 01:02:19;;;;;;;3.30;2.33;;;;;24.00;100928.00;;;;2086651;28;20228;-57
2023/08/23 01:03:19;;;;;;;2.57;2.17;;;;;24.00;100929.00;;;;2093643;28;20220;-57
2023/08/23 01:04:20;;;;;;;3.37;2.50;;;;;24.00;100932.00;;;;2095344;28;20592;-57
2023/08/23 01:05:54;;;;;;;2.80;2.37;;;;;24.00;100931.00;;;;2109378;28;20218;-57
2023/08/23 01:07:00;;;;;;;3.55;2.60;;;;;24.00;100927.00;;;;2093696;28;20282;-55
2023/08/23 01:08:13;;;;;;;3.70;2.08;;;;;24.00;100925.00;;;;2104330;28;20678;-57
2023/08/23 01:09:44;;;;;;;2.83;2.20;;;;;24.00;100929.00;;;;2086172;28;20689;-57
2023/08/23 01:10:48;;;;;;;3.42;2.10;;;;;24.00;100923.00;;;;2096643;28;20996;-55
2023/08/23 01:12:13;;;;;;;3.50;2.45;;;;;24.00;100921.00;;;;2099927;28;20227;-60
2023/08/23 01:13:39;;;;;;;3.17;2.25;;;;;24.00;100924.00;;;;2102573;28;20220;-57
2023/08/23 01:15:02;;;;;;;2.60;2.40;;;;;24.00;100924.00;;;;2100354;28;20227;-58
2023/08/23 01:16:03;;;;;;;2.50;2.00;;;;;24.00;100924.00;;;;2090821;27;20822;-55
2023/08/23 01:17:03;;;;;;;3.00;2.10;;;;;24.00;100924.00;;;;2104369;28;20243;-57
2023/08/23 01:18:03;;;;;;;5.30;2.30;;;;;24.00;100858.00;;;;2088274;28;20220;-57
2023/08/23 01:19:09;;;;;;;5.90;2.63;;;;;24.00;100929.00;;;;2067090;28;20225;-57
2023/08/23 01:20:13;;;;;;;3.30;2.15;;;;;24.00;100943.00;;;;2092913;28;20646;-56
2023/08/23 01:21:15;;;;;;;3.60;2.40;;;;;24.00;100916.00;;;;2094360;28;20212;-57
2023/08/23 01:22:18;;;;;;;3.50;2.25;;;;;24.00;100923.00;;;;2093287;28;20216;-57
2023/08/23 01:23:18;;;;;;;2.75;2.22;;;;;24.00;100925.00;;;;2092578;28;20961;-57
2023/08/23 01:24:19;;;;;;;4.03;2.37;;;;;24.00;100928.00;;;;2082729;28;20224;-57
2023/08/23 01:25:20;;;;;;;3.60;2.70;;;;;24.00;100925.00;;;;2089055;28;20227;-57
2023/08/23 01:26:20;;;;;;;2.67;2.10;;;;;24.00;100920.00;;;;2096832;28;20310;-56
2023/08/23 01:27:21;;;;;;;3.27;2.27;;;;;24.00;100917.00;;;;2096612;28;20484;-57
2023/08/23 01:28:21;;;;;;;3.73;2.13;;;;;24.00;100917.00;;;;2094899;28;20223;-57
2023/08/23 01:29:21;;;;;;;2.67;1.93;;;;;24.00;100917.00;;;;2094778;28;20234;-57
2023/08/23 01:30:22;;;;;;;2.70;2.30;;;;;24.00;100915.00;;;;2101020;28;20216;-56
2023/08/23 01:31:22;;;;;;;2.47;2.27;;;;;24.00;100915.00;;;;2093603;28;20220;-59
2023/08/23 01:32:53;;;;;;;2.70;2.20;;;;;24.00;100909.00;;;;2095541;28;20254;-59
2023/08/23 01:33:56;;;;;;;5.68;2.42;;;;;24.00;100906.00;;;;2076510;28;20227;-54
2023/08/23 01:35:01;;;;;;;6.00;2.63;;;;;24.00;100919.00;;;;2074709;28;20214;-58
2023/08/23 01:36:10;;;;;;;2.35;1.88;;;;;24.00;100916.00;;;;2094563;28;20208;-57
2023/08/23 01:37:11;;;;;;;3.55;2.05;;;;;24.00;100907.00;;;;2078809;28;20212;-57
2023/08/23 01:38:11;;;;;;;2.43;2.23;;;;;24.00;100918.00;;;;2087637;28;21686;-57
2023/08/23 01:39:11;;;;;;;3.00;1.90;;;;;24.00;100915.00;;;;2086547;28;20310;-57
2023/08/23 01:40:12;;;;;;;2.90;2.10;;;;;24.00;100907.00;;;;2101447;28;20228;-57
2023/08/23 01:41:12;;;;;;;2.80;2.17;;;;;24.00;100906.00;;;;2083410;28;20702;-57
2023/08/23 01:42:12;;;;;;;4.23;2.33;;;;;24.00;100907.00;;;;2084087;28;20224;-58
2023/08/23 01:43:13;;;;;;;2.93;2.40;;;;;24.00;100914.00;;;;2093036;28;20223;-57
2023/08/23 01:44:13;;;;;;;3.13;2.23;;;;;24.00;100918.00;;;;2089932;28;20230;-58
2023/08/23 01:45:13;;;;;;;2.80;2.03;;;;;24.00;100914.00;;;;2092765;28;20225;-57
2023/08/23 01:46:14;;;;;;;2.40;2.20;;;;;24.00;100916.00;;;;2099876;28;20219;-58
2023/08/23 01:47:14;;;;;;;3.53;2.10;;;;;24.00;100912.00;;;;2100632;28;20293;-57
2023/08/23 01:48:15;;;;;;;3.67;2.20;;;;;24.00;100907.00;;;;2100846;28;20251;-58
2023/08/23 01:49:15;;;;;;;3.50;2.40;;;;;24.00;100910.00;;;;2097379;28;20225;-57
2023/08/23 01:50:15;;;;;;;3.90;2.03;;;;;24.00;100914.00;;;;2110116;28;20215;-57
2023/08/23 01:51:15;;;;;;;3.00;2.50;;;;;24.00;100907.00;;;;2100165;28;20295;-57
2023/08/23 01:52:16;;;;;;;2.90;2.40;;;;;24.00;100903.00;;;;2101538;28;20277;-57
2023/08/23 01:53:16;;;;;;;3.23;2.10;;;;;24.00;100905.00;;;;2099582;28;20215;-57
2023/08/23 01:54:16;;;;;;;3.00;2.47;;;;;24.00;100906.00;;;;2099792;27;20260;-58
2023/08/23 01:55:17;;;;;;;5.37;2.20;;;;;24.00;100909.00;;;;2108560;27;20292;-57
2023/08/23 01:56:18;;;;;;;2.67;1.90;;;;;24.00;100905.00;;;;2101147;28;20211;-58
2023/08/23 01:57:18;;;;;;;2.53;2.00;;;;;24.00;100904.00;;;;2105771;28;20322;-57
2023/08/23 01:58:19;;;;;;;3.90;2.27;;;;;24.00;100908.00;;;;2102184;28;20208;-57
2023/08/23 01:59:19;;;;;;;4.25;2.00;;;;;24.00;100907.00;;;;2101472;27;20734;-57
2023/08/23 02:00:20;;;;;;;2.80;2.40;;;;;24.00;100908.00;;;;2112628;27;20249;-57
2023/08/23 02:01:20;;;;;;;2.50;2.13;;;;;24.00;100914.00;;;;2104595;28;20219;-57
2023/08/23 02:02:20;;;;;;;3.00;1.90;;;;;24.00;100912.00;;;;2105240;28;20222;-56
2023/08/23 02:03:21;;;;;;;2.70;2.10;;;;;23.90;100924.00;;;;2091504;28;20610;-60
2023/08/23 02:04:21;;;;;;;1.87;1.70;;;;;24.00;100914.00;;;;2085016;28;20220;-57
2023/08/23 02:05:21;;;;;;;5.23;2.27;;;;;24.00;100904.00;;;;2107553;28;20334;-58
2023/08/23 02:06:22;;;;;;;2.43;1.80;;;;;24.00;100906.00;;;;2094997;28;20223;-57
2023/08/23 02:07:22;;;;;;;2.67;2.10;;;;;24.00;100902.00;;;;2099165;28;20219;-57
2023/08/23 02:08:22;;;;;;;2.53;2.20;;;;;24.00;100910.00;;;;2089437;28;20360;-57
2023/08/23 02:09:23;;;;;;;5.00;2.30;;;;;24.00;100903.00;;;;2097582;28;20216;-57
2023/08/23 02:10:23;;;;;;;2.70;1.90;;;;;24.00;100903.00;;;;2101668;28;20228;-57
2023/08/23 02:11:23;;;;;;;3.20;2.27;;;;;24.00;100903.00;;;;2101898;28;20234;-57
2023/08/23 02:12:24;;;;;;;3.20;1.83;;;;;24.00;100902.00;;;;2100397;28;20219;-57
2023/08/23 02:13:24;;;;;;;4.50;2.27;;;;;24.00;100902.00;;;;2092368;28;20227;-58
2023/08/23 02:14:24;;;;;;;2.33;1.97;;;;;24.00;100902.00;;;;2109828;28;20238;-57
2023/08/23 02:15:25;;;;;;;2.80;1.97;;;;;24.00;100910.00;;;;2107964;28;20225;-56
2023/08/23 02:16:28;;;;;;;2.77;2.00;;;;;24.00;100905.00;;;;2091383;28;20476;-57
2023/08/23 02:17:28;;;;;;;2.55;1.80;;;;;24.00;100909.00;;;;2106375;28;20226;-57
2023/08/23 02:18:29;;;;;;;2.40;1.90;;;;;24.00;100912.00;;;;2089222;28;20242;-57
2023/08/23 02:19:29;;;;;;;2.90;2.13;;;;;24.00;100905.00;;;;2106174;28;20221;-57
2023/08/23 02:20:29;;;;;;;2.07;1.87;;;;;24.00;100914.00;;;;2107128;28;20211;-57
2023/08/23 02:21:30;;;;;;;3.53;2.10;;;;;24.00;100916.00;;;;2098702;28;20665;-57
2023/08/23 02:22:30;;;;;;;2.40;2.00;;;;;24.00;100910.00;;;;2106419;28;20652;-57
2023/08/23 02:23:30;;;;;;;3.90;2.10;;;;;24.00;100912.00;;;;2091892;28;20215;-57
2023/08/23 02:24:31;;;;;;;4.10;1.93;;;;;24.00;100909.00;;;;2109284;28;20268;-57
2023/08/23 02:25:31;;;;;;;4.90;2.50;;;;;23.90;100909.00;;;;2107168;27;20276;-58
2023/08/23 02:26:32;;;;;;;2.53;2.27;;;;;24.00;100913.00;;;;2098924;28;20219;-57
2023/08/23 02:27:32;;;;;;;2.67;2.20;;;;;24.00;100952.00;;;;2101619;28;20227;-59
2023/08/23 02:28:32;;;;;;;3.40;1.97;;;;;23.90;100913.00;;;;2089552;28;20689;-54
2023/08/23 02:29:33;;;;;;;2.57;2.00;;;;;23.90;100914.00;;;;2107339;28;20211;-55
2023/08/23 02:30:33;;;;;;;2.27;1.80;;;;;23.90;100904.00;;;;2096534;28;20216;-57
2023/08/23 02:31:33;;;;;;;2.33;1.90;;;;;24.00;100915.00;;;;2093141;28;20247;-57
2023/08/23 02:32:34;;;;;;;5.40;2.10;;;;;24.00;100912.00;;;;2096037;28;20223;-58
2023/08/23 02:33:34;;;;;;;2.57;2.20;;;;;23.90;100910.00;;;;2087709;28;20224;-57
2023/08/23 02:34:34;;;;;;;2.60;1.97;;;;;23.90;100914.00;;;;2107034;27;21606;-57
2023/08/23 02:35:39;;;;;;;2.00;1.80;;;;;23.90;100913.00;;;;2105281;27;20232;-58
2023/08/23 02:36:40;;;;;;;2.90;1.73;;;;;23.90;100913.00;;;;2101695;28;20964;-57
2023/08/23 02:37:40;;;;;;;3.20;2.07;;;;;23.90;100916.00;;;;2100842;28;20219;-58
2023/08/23 02:38:40;;;;;;;2.13;1.80;;;;;23.90;100915.00;;;;2086355;28;20469;-57
2023/08/23 02:39:40;;;;;;;2.77;2.03;;;;;23.90;100911.00;;;;2107116;27;20207;-57
2023/08/23 02:40:42;;;;;;;5.03;1.67;;;;;23.90;100901.00;;;;2106963;28;20211;-58
2023/08/23 02:41:42;;;;;;;3.95;2.13;;;;;23.90;100909.00;;;;2108027;28;20882;-56
2023/08/23 02:42:43;;;;;;;2.53;1.77;;;;;23.90;100910.00;;;;2100660;28;20261;-55
2023/08/23 02:43:43;;;;;;;2.50;1.70;;;;;23.90;100911.00;;;;2086871;28;20223;-58
2023/08/23 02:44:43;;;;;;;1.93;1.67;;;;;23.90;100905.00;;;;2103516;27;20273;-54
2023/08/23 02:45:43;;;;;;;2.33;1.90;;;;;23.90;100905.00;;;;2103188;28;20216;-56
2023/08/23 02:46:44;;;;;;;3.00;2.23;;;;;23.90;100909.00;;;;2096392;28;20318;-57
2023/08/23 02:47:44;;;;;;;2.70;2.00;;;;;23.90;100904.00;;;;2098181;28;20219;-58
2023/08/23 02:48:45;;;;;;;3.00;2.13;;;;;23.90;100909.00;;;;2094184;28;20229;-55
2023/08/23 02:49:45;;;;;;;2.93;2.03;;;;;23.90;100897.00;;;;2106561;28;20218;-57
2023/08/23 02:50:45;;;;;;;2.97;2.07;;;;;23.90;100901.00;;;;2106454;28;20208;-58
2023/08/23 02:51:46;;;;;;;3.57;2.00;;;;;23.90;100896.00;;;;2096065;28;20220;-57
2023/08/23 02:52:46;;;;;;;1.90;1.60;;;;;23.90;100900.00;;;;2099903;28;20256;-57
2023/08/23 02:53:46;;;;;;;1.83;1.73;;;;;23.90;100896.00;;;;2089328;28;20216;-56
2023/08/23 02:54:47;;;;;;;2.63;1.70;;;;;23.90;100899.00;;;;2106111;28;20254;-58
2023/08/23 02:55:47;;;;;;;3.33;2.10;;;;;23.90;100902.00;;;;2099228;28;20215;-57
2023/08/23 02:56:47;;;;;;;2.00;1.83;;;;;23.90;100896.00;;;;2099702;28;20241;-57
2023/08/23 02:57:48;;;;;;;3.17;2.30;;;;;23.90;100893.00;;;;2094462;28;20250;-57
2023/08/23 02:58:48;;;;;;;2.80;1.80;;;;;23.90;100923.00;;;;2088946;28;20234;-57
2023/08/23 02:59:48;;;;;;;1.97;1.77;;;;;23.90;100899.00;;;;2100109;28;20657;-57
2023/08/23 03:00:49;;;;;;;3.90;2.03;;;;;23.90;100889.00;;;;2102344;28;20288;-56
2023/08/23 03:01:49;;;;;;;2.57;2.10;;;;;23.90;100889.00;;;;2099020;28;20262;-57
2023/08/23 03:02:49;;;;;;;2.20;1.70;;;;;23.90;100888.00;;;;2109016;28;20218;-57
2023/08/23 03:03:50;;;;;;;2.87;1.87;;;;;23.90;100891.00;;;;2093589;28;20219;-57
2023/08/23 03:04:50;;;;;;;2.33;1.83;;;;;23.90;100885.00;;;;2097005;28;20657;-57
2023/08/23 03:05:53;;;;;;;2.27;1.70;;;;;23.90;100912.00;;;;2096053;28;20745;-57
2023/08/23 03:06:54;;;;;;;2.83;1.65;;;;;23.90;100890.00;;;;2099658;28;20230;-57
2023/08/23 03:07:54;;;;;;;2.43;1.60;;;;;23.90;100883.00;;;;2099040;28;20261;-57
2023/08/23 03:08:54;;;;;;;2.50;1.60;;;;;23.90;100887.00;;;;2090113;28;20262;-57
2023/08/23 03:09:55;;;;;;;4.03;1.87;;;;;23.90;100881.00;;;;2100906;28;20243;-58
2023/08/23 03:11:05;;;;;;;2.97;2.07;;;;;23.90;100888.00;;;;2100590;28;20215;-57
2023/08/23 03:12:06;;;;;;;2.38;1.95;;;;;23.90;100889.00;;;;2093965;28;20228;-57
2023/08/23 03:13:06;;;;;;;3.23;2.00;;;;;23.90;100889.00;;;;2101429;28;20211;-57
2023/08/23 03:14:07;;;;;;;2.50;2.27;;;;;23.90;100874.00;;;;2090962;28;20465;-57
2023/08/23 03:15:08;;;;;;;2.95;1.70;;;;;23.90;100884.00;;;;2101636;28;20223;-56
2023/08/23 03:16:08;;;;;;;2.77;2.10;;;;;23.90;100892.00;;;;2091649;28;20219;-58
2023/08/23 03:17:09;;;;;;;4.50;1.77;;;;;23.90;100891.00;;;;2101399;28;20234;-57
2023/08/23 03:18:09;;;;;;;2.20;1.97;;;;;23.90;100878.00;;;;2102710;28;20202;-57
2023/08/23 03:19:10;;;;;;;2.90;1.73;;;;;23.90;100898.00;;;;2093801;28;20287;-57
2023/08/23 03:20:10;;;;;;;2.90;1.80;;;;;23.90;100883.00;;;;2100273;28;20915;-57
2023/08/23 03:21:10;;;;;;;3.43;1.87;;;;;23.90;100881.00;;;;2102728;28;20211;-57
2023/08/23 03:22:11;;;;;;;2.83;1.90;;;;;23.90;100881.00;;;;2101517;28;20239;-57
2023/08/23 03:23:11;;;;;;;4.53;2.00;;;;;23.90;100883.00;;;;2099966;28;20221;-57
2023/08/23 03:24:11;;;;;;;2.47;2.00;;;;;23.40;100877.00;;;;2090677;28;20207;-57
2023/08/23 03:25:12;;;;;;;1.80;1.53;;;;;23.90;100878.00;;;;2108462;28;20228;-57
2023/08/23 03:26:12;;;;;;;2.20;1.80;;;;;23.90;100881.00;;;;2098528;28;20235;-57
2023/08/23 03:27:12;;;;;;;5.10;2.00;;;;;23.90;100878.00;;;;2107405;28;20211;-58
2023/08/23 03:28:13;;;;;;;4.07;1.93;;;;;23.90;100872.00;;;;2099803;28;20208;-58
2023/08/23 03:29:13;;;;;;;2.57;2.00;;;;;23.90;100872.00;;;;2099754;27;20315;-57
2023/08/23 03:30:13;;;;;;;3.87;2.17;;;;;23.90;100875.00;;;;2106547;28;20337;-57
2023/08/23 03:31:14;;;;;;;2.90;1.90;;;;;23.90;100875.00;;;;2102500;28;20222;-56
2023/08/23 03:32:14;;;;;;;2.70;1.90;;;;;23.90;100878.00;;;;2101520;28;20215;-57
2023/08/23 03:33:15;;;;;;;2.17;1.90;;;;;23.90;100879.00;;;;2099206;28;20229;-58
2023/08/23 03:34:15;;;;;;;2.87;2.10;;;;;23.90;100871.00;;;;2090955;28;20264;-57
2023/08/23 03:35:15;;;;;;;2.77;2.30;;;;;23.90;100875.00;;;;2096807;28;20218;-58
2023/08/23 03:36:16;;;;;;;1.80;1.63;;;;;23.90;100872.00;;;;2102665;28;20235;-57
2023/08/23 03:37:16;;;;;;;3.30;1.80;;;;;23.90;100865.00;;;;2100256;28;20214;-58
2023/08/23 03:38:17;;;;;;;2.33;1.90;;;;;23.90;100868.00;;;;2095233;28;20208;-57
2023/08/23 03:39:17;;;;;;;2.50;1.80;;;;;23.90;100863.00;;;;2095014;28;20253;-57
2023/08/23 03:40:17;;;;;;;2.43;1.60;;;;;23.90;100868.00;;;;2107605;28;20206;-57
2023/08/23 03:41:18;;;;;;;2.37;1.77;;;;;23.90;100868.00;;;;2091022;28;20266;-57
2023/08/23 03:42:18;;;;;;;2.33;2.00;;;;;23.90;100869.00;;;;2098331;28;20280;-58
2023/08/23 03:43:18;;;;;;;1.97;1.70;;;;;23.40;100865.00;;;;2098564;28;20214;-57
2023/08/23 03:44:19;;;;;;;2.23;1.90;;;;;23.90;100748.00;;;;2096184;28;20217;-58
2023/08/23 03:45:19;;;;;;;1.93;1.50;;;;;23.90;100867.00;;;;2108075;28;20211;-57
2023/08/23 03:46:25;;;;;;;2.80;1.80;;;;;23.90;100873.00;;;;2101033;28;20212;-57
2023/08/23 03:47:26;;;;;;;4.05;2.08;;;;;23.90;100879.00;;;;2097190;28;20227;-57
2023/08/23 03:48:26;;;;;;;3.87;2.20;;;;;23.90;100879.00;;;;2088461;28;20223;-57
2023/08/23 03:49:26;;;;;;;2.07;1.87;;;;;23.90;100883.00;;;;2100003;28;20239;-57
2023/08/23 03:50:27;;;;;;;3.10;1.83;;;;;23.90;100881.00;;;;2100248;28;20219;-56
2023/08/23 03:51:27;;;;;;;2.40;1.87;;;;;23.90;100889.00;;;;2094760;28;20222;-57
2023/08/23 03:52:27;;;;;;;2.37;1.70;;;;;23.90;100877.00;;;;2097629;28;20219;-57
2023/08/23 03:53:28;;;;;;;2.83;1.90;;;;;23.90;100880.00;;;;2094324;27;20222;-57
2023/08/23 03:54:28;;;;;;;2.73;1.80;;;;;23.90;100878.00;;;;2108276;28;20310;-57
2023/08/23 03:55:28;;;;;;;1.90;1.70;;;;;23.90;100869.00;;;;2105787;28;20211;-56
2023/08/23 03:56:29;;;;;;;2.27;2.07;;;;;23.90;100877.00;;;;2093398;28;20261;-57
2023/08/23 03:57:29;;;;;;;2.47;1.60;;;;;23.90;100873.00;;;;2098570;28;20223;-57
2023/08/23 03:58:29;;;;;;;3.10;1.90;;;;;23.90;100872.00;;;;2092404;28;20639;-57
2023/08/23 03:59:30;;;;;;;2.03;1.70;;;;;23.90;100875.00;;;;2107469;28;20245;-57
2023/08/23 04:00:30;;;;;;;2.73;2.20;;;;;23.90;100874.00;;;;2107497;28;20222;-57
2023/08/23 04:01:30;;;;;;;2.50;1.87;;;;;23.90;100869.00;;;;2099347;28;20216;-57
2023/08/23 04:02:31;;;;;;;1.77;1.60;;;;;23.90;100871.00;;;;2101142;28;20226;-57
2023/08/23 04:03:31;;;;;;;2.53;1.77;;;;;23.90;100879.00;;;;2090660;28;21038;-58
2023/08/23 04:04:31;;;;;;;1.90;1.70;;;;;23.90;100872.00;;;;2101456;28;20699;-57
2023/08/23 04:05:32;;;;;;;1.80;1.60;;;;;23.90;100881.00;;;;2102496;28;20600;-58
2023/08/23 04:06:32;;;;;;;2.70;2.00;;;;;23.90;100876.00;;;;2100925;28;20584;-57
2023/08/23 04:07:32;;;;;;;2.13;1.93;;;;;23.90;100881.00;;;;2105533;28;20222;-57
2023/08/23 04:08:32;;;;;;;2.50;1.80;;;;;23.90;100877.00;;;;2091165;28;20208;-57
2023/08/23 04:09:33;;;;;;;2.20;1.77;;;;;23.90;100870.00;;;;2101795;28;20231;-57
2023/08/23 04:10:33;;;;;;;2.10;1.37;;;;;23.90;100868.00;;;;2092100;28;20226;-58
2023/08/23 04:11:34;;;;;;;2.63;2.40;;;;;23.90;100876.00;;;;2092078;28;20226;-57
2023/08/23 04:12:34;;;;;;;2.57;1.80;;;;;23.90;100867.00;;;;2095423;28;20317;-57
2023/08/23 04:13:34;;;;;;;2.17;1.97;;;;;23.90;100872.00;;;;2087502;28;20234;-57
2023/08/23 04:14:35;;;;;;;2.97;1.87;;;;;23.90;100874.00;;;;2101057;28;20216;-57
2023/08/23 04:15:36;;;;;;;2.03;1.83;;;;;23.90;100872.00;;;;2098682;28;20231;-57
2023/08/23 04:16:36;;;;;;;2.07;1.60;;;;;23.90;100870.00;;;;2101125;28;20215;-57
2023/08/23 04:17:36;;;;;;;2.50;1.70;;;;;23.90;100873.00;;;;2098285;28;20223;-58
2023/08/23 04:18:37;;;;;;;3.10;1.70;;;;;23.80;100870.00;;;;2089136;28;20207;-57
2023/08/23 04:19:37;;;;;;;2.73;1.80;;;;;23.90;100863.00;;;;2108708;28;20715;-57
2023/08/23 04:20:38;;;;;;;3.20;2.07;;;;;23.80;100865.00;;;;2106274;28;20732;-56
2023/08/23 04:21:38;;;;;;;3.00;1.60;;;;;23.90;100872.00;;;;2100823;28;20211;-56
2023/08/23 04:22:38;;;;;;;2.17;1.53;;;;;23.90;100874.00;;;;2099130;28;20225;-57
2023/08/23 04:23:38;;;;;;;1.70;1.60;;;;;23.90;100872.00;;;;2090963;28;20666;-59
2023/08/23 04:24:39;;;;;;;1.90;1.60;;;;;23.80;100872.00;;;;2099644;28;20235;-58
2023/08/23 04:25:39;;;;;;;2.50;2.00;;;;;23.80;100870.00;;;;2097543;28;20211;-60
2023/08/23 04:26:40;;;;;;;2.33;2.00;;;;;23.80;100871.00;;;;2100449;28;20220;-58
2023/08/23 04:27:40;;;;;;;2.50;2.07;;;;;23.80;100872.00;;;;2101066;28;20226;-57
2023/08/23 04:28:40;;;;;;;2.67;2.00;;;;;23.80;100866.00;;;;2091730;28;20216;-57
2023/08/23 04:29:40;;;;;;;2.10;1.80;;;;;23.80;100867.00;;;;2100418;28;20265;-57
2023/08/23 04:30:42;;;;;;;2.10;1.90;;;;;23.80;100872.00;;;;2105227;28;20296;-57
2023/08/23 04:31:43;;;;;;;2.78;1.88;;;;;23.80;100878.00;;;;2099324;28;20651;-57
2023/08/23 04:32:43;;;;;;;2.70;2.07;;;;;23.80;100876.00;;;;2100033;28;20216;-56
2023/08/23 04:33:44;;;;;;;2.83;1.53;;;;;23.80;100878.00;;;;2089472;28;20228;-58
2023/08/23 04:34:44;;;;;;;2.40;2.20;;;;;23.80;100879.00;;;;2105063;28;20726;-58
2023/08/23 04:35:44;;;;;;;4.10;1.80;;;;;23.80;100880.00;;;;2103119;28;20223;-58
2023/08/23 04:36:45;;;;;;;2.03;1.80;;;;;23.80;100884.00;;;;2098731;28;20250;-57
2023/08/23 04:37:45;;;;;;;4.73;2.10;;;;;23.80;100877.00;;;;2101626;28;20219;-57
2023/08/23 04:38:45;;;;;;;1.77;1.67;;;;;23.80;100882.00;;;;2090309;28;20234;-58
2023/08/23 04:39:46;;;;;;;2.50;1.80;;;;;23.80;100901.00;;;;2101624;28;20211;-57
2023/08/23 04:40:47;;;;;;;2.15;1.88;;;;;23.80;100894.00;;;;2100589;28;20249;-57
2023/08/23 04:41:47;;;;;;;2.33;1.93;;;;;23.80;100895.00;;;;2093821;28;20207;-57
2023/08/23 04:42:47;;;;;;;2.27;1.87;;;;;23.80;100894.00;;;;2102859;28;20204;-57
2023/08/23 04:43:48;;;;;;;3.23;1.80;;;;;23.80;100900.00;;;;2091109;28;20315;-57
2023/08/23 04:44:48;;;;;;;1.83;1.73;;;;;23.80;100898.00;;;;2102661;28;20204;-57
2023/08/23 04:45:48;;;;;;;1.90;1.70;;;;;23.80;100967.00;;;;2100374;28;20328;-57
2023/08/23 04:46:49;;;;;;;3.13;1.60;;;;;23.80;100896.00;;;;2108578;28;20214;-57
2023/08/23 04:47:51;;;;;;;3.00;1.57;;;;;23.80;100910.00;;;;2106685;28;21043;-58
2023/08/23 04:48:51;;;;;;;1.92;1.50;;;;;23.80;100904.00;;;;2092626;28;20779;-57
2023/08/23 04:49:51;;;;;;;4.03;2.00;;;;;23.80;100910.00;;;;2100650;28;20220;-57
2023/08/23 04:50:52;;;;;;;2.90;1.87;;;;;23.80;100924.00;;;;2096999;28;20227;-56
2023/08/23 04:51:53;;;;;;;2.60;1.90;;;;;23.80;100901.00;;;;2107608;28;20227;-56
2023/08/23 04:52:53;;;;;;;2.97;1.70;;;;;23.80;100895.00;;;;2102378;28;20630;-57
2023/08/23 04:53:53;;;;;;;2.20;2.00;;;;;23.80;100912.00;;;;2092042;28;21159;-56
2023/08/23 04:54:54;;;;;;;3.73;2.13;;;;;23.80;100907.00;;;;2100623;28;20775;-57
2023/08/23 04:55:58;;;;;;;2.53;2.20;;;;;23.80;100907.00;;;;2098292;28;20689;-56
2023/08/23 04:56:58;;;;;;;2.47;2.05;;;;;23.80;100904.00;;;;2102506;28;20732;-57
2023/08/23 04:57:59;;;;;;;3.63;1.80;;;;;23.80;100902.00;;;;2092984;28;20239;-58
2023/08/23 04:58:59;;;;;;;2.53;1.90;;;;;23.80;100898.00;;;;2096081;28;20302;-58
2023/08/23 04:59:59;;;;;;;2.60;2.37;;;;;23.80;100905.00;;;;2100815;28;20224;-57
2023/08/23 05:01:06;;;;;;;2.70;2.23;;;;;23.80;100897.00;;;;2102095;28;20219;-57
2023/08/23 05:02:06;;;;;;;2.83;2.47;;;;;23.80;100898.00;;;;2100464;28;20227;-56
2023/08/23 05:03:07;;;;;;;2.30;2.10;;;;;23.80;100893.00;;;;2102246;28;20779;-57